Time;durP1;ratioP1;P1;durP2;ratioP2;P2;SDS_P1;SDS_P2;PMS_P1;PMS_P2;Temp;Humidity;BMP_temperature;BMP_pressure;BME280_temperature;BME280_humidity;BME280_pressure;Samples;Min_cycle;Max_cycle;Signal;HPM_P1;HPM_P2
2022/01/09 00:00:13;;;;;;;5.67;5.15;;;;;;;10.68;47.10;98493.09;1746986;81;21077;-68
2022/01/09 00:02:40;;;;;;;5.50;5.00;;;;;;;10.68;49.08;98489.61;1750530;81;20934;-69
2022/01/09 00:05:07;;;;;;;6.58;5.33;;;;;;;11.30;46.21;98481.04;1741247;81;20963;-69
2022/01/09 00:07:34;;;;;;;6.45;5.80;;;;;;;11.34;45.86;98488.92;1741744;81;20911;-66
2022/01/09 00:10:00;;;;;;;6.08;5.15;;;;;;;11.23;46.05;98472.21;1726891;80;21116;-69
2022/01/09 00:12:27;;;;;;;5.95;5.37;;;;;;;11.14;46.24;98483.53;1790014;78;21439;-66
2022/01/09 00:14:53;;;;;;;5.42;4.92;;;;;;;11.41;45.79;98481.81;1794884;79;20956;-67
2022/01/09 00:17:19;;;;;;;6.05;5.45;;;;;;;11.19;46.15;98478.94;1785042;78;21006;-67
2022/01/09 00:19:46;;;;;;;5.35;4.85;;;;;;;11.03;46.36;98472.61;1782641;78;21462;-67
2022/01/09 00:22:13;;;;;;;5.87;5.05;;;;;;;11.03;46.22;98472.11;1778157;79;21196;-67
2022/01/09 00:24:40;;;;;;;5.80;5.20;;;;;;;11.02;45.87;98468.32;1789448;78;21060;-69
2022/01/09 00:27:08;;;;;;;5.10;4.62;;;;;;;10.97;45.76;98466.77;1781505;79;37672;-70
2022/01/09 00:29:34;;;;;;;6.50;5.42;;;;;;;10.95;45.82;98463.48;1786530;78;20986;-70
2022/01/09 00:32:00;;;;;;;6.20;5.60;;;;;;;10.90;45.77;98462.72;1780585;78;21493;-70
2022/01/09 00:34:26;;;;;;;7.03;6.33;;;;;;;11.03;45.59;98461.46;1788008;78;21157;-68
2022/01/09 00:36:53;;;;;;;6.28;5.67;;;;;;;11.07;45.32;98452.58;1758939;79;20919;-67
2022/01/09 00:39:19;;;;;;;5.80;5.30;;;;;;;11.01;45.25;98452.86;1780705;78;21532;-66
2022/01/09 00:41:46;;;;;;;5.78;5.17;;;;;;;10.98;45.07;98453.25;1788594;78;21014;-68
2022/01/09 00:44:12;;;;;;;6.40;5.42;;;;;;;11.04;44.90;98448.48;1781150;78;21031;-66
2022/01/09 00:46:38;;;;;;;6.60;5.33;;;;;;;11.18;44.90;98435.52;1775655;79;21130;-67
2022/01/09 00:49:05;;;;;;;5.95;4.87;;;;;;;11.28;44.89;98438.33;1776253;78;21064;-68
2022/01/09 00:51:31;;;;;;;5.58;5.03;;;;;;;11.11;45.14;98438.67;1779982;78;21450;-69
2022/01/09 00:53:57;;;;;;;5.87;5.33;;;;;;;11.07;44.81;98436.61;1791656;78;20958;-67
2022/01/09 00:56:24;;;;;;;5.80;5.30;;;;;;;11.05;44.80;98437.33;1793102;79;21426;-70
2022/01/09 00:58:51;;;;;;;5.95;5.22;;;;;;;10.90;44.83;98425.97;1794042;79;21327;-68
2022/01/09 01:01:17;;;;;;;5.87;5.37;;;;;;;10.83;48.59;98427.79;1784628;79;20974;-70
2022/01/09 01:03:43;;;;;;;5.53;4.95;;;;;;;10.80;45.65;98427.67;1783896;79;20888;-66
2022/01/09 01:06:10;;;;;;;6.03;5.42;;;;;;;10.80;45.26;98418.87;1801297;78;20990;-68
2022/01/09 01:08:37;;;;;;;6.20;5.60;;;;;;;10.74;45.38;98409.03;1798214;78;20966;-68
2022/01/09 01:11:03;;;;;;;5.90;5.12;;;;;;;10.74;45.28;98409.03;1796759;79;21126;-66
2022/01/09 01:13:29;;;;;;;5.47;4.97;;;;;;;10.76;45.17;98399.84;1801373;78;20863;-69
2022/01/09 01:15:57;;;;;;;6.25;5.12;;;;;;;10.77;45.08;98395.31;1809552;78;20971;-69
2022/01/09 01:18:24;;;;;;;6.50;4.97;;;;;;;10.76;46.33;98393.69;1783340;79;20903;-68
2022/01/09 01:20:50;;;;;;;6.20;5.60;;;;;;;10.80;47.16;98392.27;1797052;78;21058;-67
2022/01/09 01:23:17;;;;;;;5.58;5.05;;;;;;;15.18;47.62;98371.02;1804729;78;21215;-67
2022/01/09 01:25:50;;;;;;;5.12;4.62;;;;;;;16.03;39.37;98364.95;1792880;79;21430;-67
2022/01/09 01:28:11;;;;;;;5.95;5.35;;;;;;;15.87;38.62;98366.97;1796386;78;20987;-69
2022/01/09 01:30:38;;;;;;;6.65;5.30;;;;;;;15.52;38.13;98358.83;1802862;79;21081;-67
2022/01/09 01:33:04;;;;;;;6.08;5.37;;;;;;;15.09;39.66;98364.34;1792869;78;20918;-66
2022/01/09 01:35:31;;;;;;;5.67;5.08;;;;;;;14.64;39.26;98359.02;1796450;78;21152;-66
2022/01/09 01:37:57;;;;;;;5.80;4.92;;;;;;;14.47;80.71;98360.11;1812433;78;21496;-66
2022/01/09 01:40:24;;;;;;;6.05;5.45;;;;;;;14.43;57.98;98353.58;1793905;78;20998;-67
2022/01/09 01:42:50;;;;;;;6.37;5.22;;;;;;;14.41;41.63;98352.16;1795172;78;20942;-68
2022/01/09 01:45:17;;;;;;;5.42;4.92;;;;;;;14.36;43.89;98352.02;1807469;78;21014;-69
2022/01/09 01:47:45;;;;;;;6.85;5.33;;;;;;;14.03;44.18;98342.91;1809741;78;21473;-67
2022/01/09 01:50:13;;;;;;;6.50;5.40;;;;;;;14.17;41.79;98339.91;1804113;79;20992;-68
2022/01/09 01:52:44;;;;;;;5.87;5.28;;;;;;;14.29;41.27;98338.66;1794291;78;21508;-68
2022/01/09 01:55:10;;;;;;;5.62;5.03;;;;;;;14.18;41.21;98334.05;1801555;78;20926;-68
2022/01/09 01:57:42;;;;;;;5.28;4.78;;;;;;;14.11;41.11;98333.28;1800206;78;21017;-70
2022/01/09 02:00:13;;;;;;;5.67;5.03;;;;;;;14.11;41.07;98323.41;1794128;78;21200;-69
2022/01/09 02:02:39;;;;;;;6.00;4.20;;;;;;;13.94;41.22;98328.20;1806049;78;20976;-66
2022/01/09 02:05:07;;;;;;;5.53;4.40;;;;;;;13.88;40.95;98327.73;1799021;78;20958;-68
2022/01/09 02:07:35;;;;;;;4.90;4.47;;;;;;;13.93;40.90;98324.70;1803674;79;20876;-70
2022/01/09 02:10:08;;;;;;;5.25;4.42;;;;;;;13.73;66.73;98321.90;1793421;79;21006;-68
2022/01/09 02:12:40;;;;;;;6.22;5.00;;;;;;;13.63;42.58;98313.55;1796807;79;20992;-66
2022/01/09 02:15:30;;;;;;;6.17;4.53;;;;;;;13.70;56.84;98311.13;1798550;79;20911;-68
2022/01/09 02:17:56;;;;;;;5.50;4.28;;;;;;;13.53;46.22;98298.02;1794801;79;20986;-70
2022/01/09 02:20:23;;;;;;;5.05;4.47;;;;;;;13.59;61.10;98302.47;1787962;79;21482;-70
2022/01/09 02:22:49;;;;;;;4.80;4.33;;;;;;;13.47;49.00;98293.02;1749332;81;21489;-68
2022/01/09 02:25:15;;;;;;;5.70;4.80;;;;;;;13.39;45.44;98293.80;1749138;81;21137;-66
2022/01/09 02:27:42;;;;;;;5.03;4.17;;;;;;;13.29;43.44;98284.94;1730679;82;20956;-68
2022/01/09 02:30:09;;;;;;;4.85;4.35;;;;;;;13.16;44.21;98288.20;1740374;81;21027;-68
2022/01/09 02:32:35;;;;;;;4.47;4.08;;;;;;;12.98;45.00;98293.70;1738486;81;21022;-69
2022/01/09 02:35:02;;;;;;;5.78;4.17;;;;;;;12.90;44.29;98289.14;1741842;81;20935;-70
2022/01/09 02:37:28;;;;;;;4.53;4.03;;;;;;;12.85;43.51;98287.63;1724307;82;21977;-69
2022/01/09 02:39:54;;;;;;;4.30;3.90;;;;;;;12.57;44.28;98285.79;1751038;81;21007;-67
2022/01/09 02:42:25;;;;;;;4.05;3.67;;;;;;;12.46;44.30;98281.14;1762697;80;21589;-69
2022/01/09 02:44:52;;;;;;;5.62;3.87;;;;;;;12.49;43.80;98276.17;1766043;80;21559;-65
2022/01/09 02:47:19;;;;;;;4.40;4.00;;;;;;;12.44;43.53;98271.17;1790486;79;20926;-68
2022/01/09 02:49:52;;;;;;;4.83;3.90;;;;;;;12.30;43.67;98269.91;1797200;79;21134;-70
2022/01/09 02:52:48;;;;;;;4.65;3.98;;;;;;;12.30;43.37;98269.09;1779300;79;20891;-69
2022/01/09 02:55:11;;;;;;;3.93;3.50;;;;;;;12.35;43.49;98265.27;1779362;79;21465;-70
2022/01/09 02:57:33;;;;;;;4.05;3.12;;;;;;;12.35;43.23;98263.43;1798949;79;21410;-67
2022/01/09 03:00:00;;;;;;;4.15;3.40;;;;;;;12.33;44.13;98254.80;1798689;79;20903;-70
2022/01/09 03:02:26;;;;;;;3.92;3.52;;;;;;;12.37;43.23;98249.88;1787083;79;22626;-68
2022/01/09 03:04:53;;;;;;;4.37;3.50;;;;;;;12.33;43.02;98240.67;1766416;80;21131;-69
2022/01/09 03:07:19;;;;;;;3.92;3.52;;;;;;;12.42;42.77;98233.23;1770957;80;20987;-67
2022/01/09 03:09:45;;;;;;;5.12;3.30;;;;;;;12.42;42.49;98233.23;1814468;78;21005;-70
2022/01/09 03:12:12;;;;;;;3.75;3.05;;;;;;;12.41;42.49;98237.73;1773311;80;21083;-67
2022/01/09 03:14:39;;;;;;;4.28;3.58;;;;;;;12.43;42.04;98235.70;1764230;80;21109;-70
2022/01/09 03:17:05;;;;;;;4.20;3.58;;;;;;;12.55;41.31;98230.50;1773291;80;20981;-69
2022/01/09 03:19:31;;;;;;;3.98;3.30;;;;;;;12.51;41.15;98219.97;1747702;81;20887;-69
2022/01/09 03:21:58;;;;;;;3.35;3.05;;;;;;;12.49;41.63;98216.16;1814636;78;20986;-69
2022/01/09 03:24:24;;;;;;;5.30;3.30;;;;;;;12.44;40.86;98219.98;1822388;78;21068;-70
2022/01/09 03:26:50;;;;;;;3.30;3.00;;;;;;;12.48;42.13;98217.72;1767373;80;21140;-68
2022/01/09 03:29:17;;;;;;;3.95;3.40;;;;;;;12.46;42.13;98219.79;1783396;80;20942;-67
2022/01/09 03:31:43;;;;;;;4.65;3.87;;;;;;;12.81;58.92;98220.52;1772027;80;21474;-69
2022/01/09 03:34:09;;;;;;;3.40;3.10;;;;;;;12.61;44.55;98210.48;1766923;80;21062;-71
2022/01/09 03:36:35;;;;;;;3.70;3.40;;;;;;;12.38;59.97;98213.64;1761583;80;20985;-68
2022/01/09 03:39:02;;;;;;;4.28;3.80;;;;;;;12.40;62.45;98212.12;1780068;80;21099;-70
2022/01/09 03:41:28;;;;;;;3.77;3.47;;;;;;;12.36;45.54;98201.05;1819601;78;20900;-68
2022/01/09 03:43:55;;;;;;;4.53;3.55;;;;;;;12.38;50.80;98201.64;1800450;78;20953;-68
2022/01/09 03:46:21;;;;;;;3.15;2.85;;;;;;;12.44;45.27;98195.98;1804768;78;21035;-66
2022/01/09 03:48:48;;;;;;;5.97;3.40;;;;;;;12.56;44.37;98198.80;1825595;78;20906;-68
2022/01/09 03:51:14;;;;;;;5.22;3.45;;;;;;;12.60;46.33;98196.00;1813756;78;21094;-67
2022/01/09 03:53:41;;;;;;;3.60;3.22;;;;;;;12.59;45.77;98196.51;1818923;78;20969;-67
2022/01/09 03:56:07;;;;;;;3.85;3.45;;;;;;;12.60;52.42;98193.33;1811757;78;20993;-67
2022/01/09 03:58:36;;;;;;;4.70;3.27;;;;;;;12.54;45.86;98187.00;1763278;80;20942;-68
2022/01/09 04:01:06;;;;;;;3.72;3.20;;;;;;;12.65;44.09;98184.17;1774940;80;20914;-69
2022/01/09 04:03:34;;;;;;;3.70;3.40;;;;;;;12.63;43.77;98183.06;1774480;80;21173;-69
2022/01/09 04:06:01;;;;;;;3.30;2.98;;;;;;;12.46;43.88;98183.78;1761653;80;20974;-68
2022/01/09 04:08:28;;;;;;;4.80;3.80;;;;;;;12.34;44.58;98183.62;1758924;80;20895;-67
2022/01/09 04:10:55;;;;;;;3.90;3.33;;;;;;;12.35;44.29;98178.09;1797634;79;21027;-69
2022/01/09 04:13:21;;;;;;;3.55;3.25;;;;;;;12.38;43.51;98178.97;1812091;78;20875;-70
2022/01/09 04:15:49;;;;;;;4.20;3.50;;;;;;;12.44;43.39;98172.48;1803043;78;21212;-69
2022/01/09 04:18:18;;;;;;;4.78;3.15;;;;;;;12.35;43.25;98171.42;1812929;78;20955;-67
2022/01/09 04:20:45;;;;;;;5.55;3.72;;;;;;;12.36;43.74;98173.04;1802979;78;20926;-69
2022/01/09 04:23:12;;;;;;;3.85;3.00;;;;;;;12.37;51.67;98172.53;1785551;78;20993;-69
2022/01/09 04:25:41;;;;;;;3.30;2.98;;;;;;;12.46;43.75;98166.45;1796829;78;20938;-67
2022/01/09 04:28:08;;;;;;;3.47;3.17;;;;;;;12.31;43.12;98170.20;1800671;78;21172;-67
2022/01/09 04:30:34;;;;;;;3.45;3.12;;;;;;;12.26;45.11;98156.69;1770785;80;20954;-67
2022/01/09 04:33:00;;;;;;;4.62;3.15;;;;;;;12.41;44.26;98156.94;1758400;80;20990;-68
2022/01/09 04:35:27;;;;;;;3.80;3.40;;;;;;;12.42;43.95;98155.88;1749614;81;21125;-69
2022/01/09 04:37:54;;;;;;;4.17;3.55;;;;;;;12.37;43.82;98156.02;1726842;81;20920;-70
2022/01/09 04:40:21;;;;;;;4.17;3.75;;;;;;;12.26;43.42;98162.02;1771628;80;21552;-70
2022/01/09 04:42:53;;;;;;;4.10;3.42;;;;;;;12.15;43.45;98165.88;1804045;78;20915;-69
2022/01/09 04:45:18;;;;;;;4.30;2.80;;;;;;;12.15;43.06;98160.01;1797987;78;21449;-67
2022/01/09 04:47:47;;;;;;;4.83;3.35;;;;;;;12.16;42.58;98157.66;1802768;79;20891;-68
2022/01/09 04:50:20;;;;;;;6.40;3.37;;;;;;;12.15;42.58;98149.34;1804650;78;21011;-67
2022/01/09 04:52:44;;;;;;;3.17;2.87;;;;;;;12.16;42.33;98158.99;1808003;78;21821;-67
2022/01/09 04:55:11;;;;;;;3.75;3.35;;;;;;;12.09;42.81;98143.55;1789058;79;20918;-68
2022/01/09 04:57:37;;;;;;;3.75;3.35;;;;;;;12.10;49.16;98134.50;1760816;80;20990;-67
2022/01/09 05:00:06;;;;;;;3.77;3.37;;;;;;;12.12;43.60;98139.10;1768116;80;20901;-68
2022/01/09 05:02:33;;;;;;;4.35;3.30;;;;;;;12.14;43.42;98138.40;1757859;80;20881;-67
2022/01/09 05:05:00;;;;;;;3.85;2.95;;;;;;;12.15;42.85;98145.34;1766037;80;21136;-69
2022/01/09 05:07:26;;;;;;;4.78;3.98;;;;;;;12.24;42.05;98140.09;1719513;82;20934;-67
2022/01/09 05:09:54;;;;;;;4.75;3.45;;;;;;;12.11;42.34;98141.48;1734313;81;20942;-70
2022/01/09 05:12:21;;;;;;;4.10;3.70;;;;;;;12.12;42.51;98139.10;1747887;81;20875;-69
2022/01/09 05:14:47;;;;;;;4.33;3.80;;;;;;;12.20;69.42;98142.86;1737407;81;21015;-69
2022/01/09 05:17:13;;;;;;;5.53;3.47;;;;;;;12.66;49.86;98146.62;1742549;81;21211;-67
2022/01/09 05:19:41;;;;;;;4.50;3.62;;;;;;;12.77;60.96;98139.27;1747759;81;21497;-69
2022/01/09 05:22:08;;;;;;;4.47;3.58;;;;;;;12.94;47.99;98136.86;1785717;79;21076;-66
2022/01/09 05:24:36;;;;;;;5.72;3.87;;;;;;;12.71;43.61;98124.62;1796738;79;20926;-67
2022/01/09 05:27:03;;;;;;;5.03;3.70;;;;;;;12.62;43.17;98116.59;1793174;79;21030;-69
2022/01/09 05:29:29;;;;;;;5.75;3.72;;;;;;;12.61;42.81;98115.77;1785820;79;21138;-69
2022/01/09 05:31:56;;;;;;;4.30;3.77;;;;;;;12.58;42.39;98118.03;1782890;79;20958;-69
2022/01/09 05:34:22;;;;;;;6.15;3.60;;;;;;;12.60;42.07;98122.63;1795755;79;20979;-68
2022/01/09 05:36:48;;;;;;;4.83;3.77;;;;;;;12.64;41.96;98124.67;1793594;79;20919;-66
2022/01/09 05:39:15;;;;;;;4.37;3.98;;;;;;;12.63;41.87;98126.20;1781172;79;21485;-67
2022/01/09 05:41:42;;;;;;;4.67;3.85;;;;;;;12.61;41.58;98130.95;1788980;79;21146;-67
2022/01/09 05:44:08;;;;;;;4.12;3.67;;;;;;;12.58;41.69;98132.20;1798542;79;20915;-66
2022/01/09 05:46:35;;;;;;;4.60;3.83;;;;;;;12.63;41.54;98126.20;1791823;79;20966;-69
2022/01/09 05:49:01;;;;;;;5.28;4.30;;;;;;;12.61;43.27;98127.77;1792138;79;21568;-68
2022/01/09 05:51:28;;;;;;;5.15;4.08;;;;;;;12.62;41.37;98128.05;1761996;81;20903;-68
2022/01/09 05:53:54;;;;;;;4.30;3.65;;;;;;;12.66;41.30;98131.12;1759241;81;21154;-67
2022/01/09 05:56:21;;;;;;;4.33;3.92;;;;;;;12.55;41.09;98128.63;1756139;81;20965;-68
2022/01/09 05:58:47;;;;;;;5.47;3.75;;;;;;;12.65;41.13;98129.47;1737947;81;21430;-68
2022/01/09 06:01:13;;;;;;;4.33;3.60;;;;;;;12.72;40.92;98126.27;1749282;80;21118;-69
2022/01/09 06:03:39;;;;;;;4.53;3.25;;;;;;;12.78;40.61;98127.53;1746826;81;20987;-68
2022/01/09 06:06:06;;;;;;;3.72;3.40;;;;;;;12.85;40.44;98124.83;1759531;80;21952;-68
2022/01/09 06:08:33;;;;;;;5.85;3.52;;;;;;;12.92;40.29;98125.59;1808554;78;20923;-70
2022/01/09 06:10:59;;;;;;;4.03;3.58;;;;;;;13.04;39.94;98125.17;1813449;79;20938;-70
2022/01/09 06:13:26;;;;;;;4.08;3.65;;;;;;;12.96;39.91;98115.59;1806361;78;21520;-67
2022/01/09 06:15:52;;;;;;;4.08;3.42;;;;;;;12.85;39.72;98110.95;1763897;80;21078;-69
2022/01/09 06:18:20;;;;;;;5.37;3.90;;;;;;;12.79;39.41;98112.34;1768195;80;21778;-67
2022/01/09 06:20:47;;;;;;;4.70;3.85;;;;;;;12.77;39.36;98111.75;1798807;78;21624;-69
2022/01/09 06:23:16;;;;;;;4.42;3.60;;;;;;;12.61;39.43;98114.95;1788410;78;20981;-68
2022/01/09 06:25:42;;;;;;;5.45;4.60;;;;;;;12.53;39.31;98112.53;1797942;78;21657;-70
2022/01/09 06:28:09;;;;;;;4.85;4.37;;;;;;;12.42;39.24;98116.70;1801684;78;21497;-68
2022/01/09 06:30:35;;;;;;;5.85;4.78;;;;;;;12.42;39.15;98117.21;1799223;78;21196;-70
2022/01/09 06:33:03;;;;;;;6.03;5.15;;;;;;;12.41;38.94;98113.72;1802916;78;20899;-68
2022/01/09 06:35:30;;;;;;;5.67;4.50;;;;;;;12.46;38.81;98117.10;1776790;80;20899;-69
2022/01/09 06:37:57;;;;;;;5.62;4.58;;;;;;;12.43;38.70;98115.68;1780375;80;21002;-66
2022/01/09 06:40:24;;;;;;;5.58;4.33;;;;;;;12.47;38.53;98115.54;1801218;78;20989;-70
2022/01/09 06:42:51;;;;;;;6.00;5.03;;;;;;;12.44;38.48;98123.14;1795411;78;21134;-67
2022/01/09 06:45:18;;;;;;;5.40;4.25;;;;;;;12.50;38.35;98128.45;1792140;78;20946;-67
2022/01/09 06:47:44;;;;;;;5.20;4.67;;;;;;;12.53;38.28;98128.54;1797077;78;21152;-66
2022/01/09 06:50:11;;;;;;;6.08;4.30;;;;;;;12.61;38.14;98130.44;1797820;79;20931;-69
2022/01/09 06:52:38;;;;;;;5.35;4.08;;;;;;;12.67;38.13;98124.77;1801031;78;20993;-69
2022/01/09 06:55:06;;;;;;;5.12;4.30;;;;;;;12.70;38.36;98114.97;1799473;78;21868;-70
2022/01/09 06:57:32;;;;;;;5.83;4.47;;;;;;;12.78;38.36;98118.19;1798633;78;20920;-66
2022/01/09 06:59:59;;;;;;;5.17;4.45;;;;;;;12.78;38.35;98115.52;1796294;78;21441;-68
2022/01/09 07:02:25;;;;;;;4.95;4.42;;;;;;;12.82;38.11;98112.74;1797585;78;21127;-68
2022/01/09 07:04:51;;;;;;;4.92;4.28;;;;;;;12.86;38.00;98113.10;1757419;80;21077;-69
2022/01/09 07:07:18;;;;;;;4.33;3.85;;;;;;;12.98;37.71;98106.05;1767182;80;22411;-68
2022/01/09 07:09:44;;;;;;;5.22;4.72;;;;;;;13.01;37.81;98105.58;1753285;80;20987;-70
2022/01/09 07:12:12;;;;;;;6.87;4.92;;;;;;;13.07;52.48;98106.08;1763588;80;20978;-67
2022/01/09 07:14:40;;;;;;;5.22;3.98;;;;;;;12.98;38.21;98099.38;1759828;80;21063;-69
2022/01/09 07:17:06;;;;;;;4.92;4.42;;;;;;;12.96;37.95;98092.08;1791629;78;21041;-69
2022/01/09 07:19:32;;;;;;;5.70;4.92;;;;;;;13.00;37.65;98093.28;1761294;80;21137;-68
2022/01/09 07:21:59;;;;;;;7.70;5.03;;;;;;;13.03;37.56;98085.36;1754069;80;21642;-67
2022/01/09 07:24:25;;;;;;;5.33;4.50;;;;;;;13.12;37.34;98083.55;1757289;80;21007;-67
2022/01/09 07:26:51;;;;;;;6.00;4.78;;;;;;;13.14;37.24;98080.13;1753016;80;20999;-71
2022/01/09 07:29:18;;;;;;;5.78;4.92;;;;;;;13.18;37.18;98081.34;1762518;80;20978;-66
2022/01/09 07:31:44;;;;;;;7.12;4.67;;;;;;;13.27;36.97;98084.55;1768690;80;21150;-66
2022/01/09 07:34:11;;;;;;;4.78;3.85;;;;;;;13.38;36.78;98081.95;1770825;80;20944;-65
2022/01/09 07:36:39;;;;;;;5.97;4.97;;;;;;;13.39;36.67;98077.43;1764197;80;20935;-66
2022/01/09 07:39:05;;;;;;;5.33;4.58;;;;;;;13.38;36.63;98079.28;1767435;80;21576;-68
2022/01/09 07:41:32;;;;;;;6.45;5.55;;;;;;;13.39;36.46;98074.25;1777927;80;20947;-66
2022/01/09 07:43:58;;;;;;;6.45;5.12;;;;;;;13.43;36.48;98074.09;1773558;80;21207;-66
2022/01/09 07:46:24;;;;;;;8.30;5.10;;;;;;;13.48;36.35;98066.73;1797458;79;21670;-67
2022/01/09 07:48:51;;;;;;;6.17;5.10;;;;;;;13.45;36.35;98062.66;1813335;78;21108;-66
2022/01/09 07:51:18;;;;;;;4.92;4.40;;;;;;;13.54;36.33;98064.00;1801150;78;21569;-62
2022/01/09 07:53:44;;;;;;;5.45;4.95;;;;;;;13.62;36.34;98070.91;1805683;78;20910;-64
2022/01/09 07:56:10;;;;;;;6.03;4.97;;;;;;;13.63;36.54;98072.00;1792810;79;21087;-64
2022/01/09 07:58:38;;;;;;;5.17;4.67;;;;;;;13.58;36.37;98065.72;1761938;80;21002;-65
2022/01/09 08:01:05;;;;;;;4.90;4.40;;;;;;;13.55;36.33;98059.48;1753759;80;21021;-63
2022/01/09 08:03:31;;;;;;;4.55;4.08;;;;;;;13.51;36.36;98063.11;1759768;80;20980;-63
2022/01/09 08:05:58;;;;;;;5.45;4.40;;;;;;;13.49;36.36;98062.52;1800820;78;21571;-67
2022/01/09 08:08:24;;;;;;;4.25;3.60;;;;;;;13.53;36.32;98072.25;1773964;78;21990;-65
2022/01/09 08:10:52;;;;;;;4.78;4.12;;;;;;;13.54;36.22;98057.33;1732067;82;20884;-66
2022/01/09 08:13:19;;;;;;;6.95;4.12;;;;;;;13.54;36.25;98043.14;1785125;78;21040;-65
2022/01/09 08:15:45;;;;;;;6.03;4.50;;;;;;;13.48;36.31;98033.34;1778696;78;21003;-65
2022/01/09 08:18:12;;;;;;;5.45;4.72;;;;;;;13.57;36.43;98034.69;1775704;78;20911;-64
2022/01/09 08:20:39;;;;;;;5.10;4.45;;;;;;;13.66;36.08;98035.20;1774374;78;21118;-67
2022/01/09 08:23:05;;;;;;;5.62;5.00;;;;;;;13.55;36.03;98033.59;1726798;82;21548;-67
2022/01/09 08:25:31;;;;;;;5.28;4.78;;;;;;;13.61;36.03;98027.84;1778427;79;21006;-65
2022/01/09 08:27:58;;;;;;;6.50;5.78;;;;;;;13.59;36.24;98032.59;1779544;78;21026;-65
2022/01/09 08:30:24;;;;;;;4.95;4.53;;;;;;;13.41;36.99;98040.63;1769461;79;21201;-65
2022/01/09 08:32:54;;;;;;;5.50;4.60;;;;;;;13.52;37.37;98042.05;1783680;78;21068;-67
2022/01/09 08:35:20;;;;;;;5.10;4.60;;;;;;;13.60;37.44;98037.73;1776985;78;21146;-66
2022/01/09 08:37:48;;;;;;;6.30;4.83;;;;;;;13.68;40.28;98043.81;1781149;79;21042;-66
2022/01/09 08:40:23;;;;;;;5.75;5.12;;;;;;;13.63;37.12;98039.66;1779502;78;21513;-67
2022/01/09 08:42:48;;;;;;;5.58;4.95;;;;;;;13.57;36.86;98029.34;1790557;79;21015;-65
2022/01/09 08:45:15;;;;;;;5.00;4.47;;;;;;;13.58;36.94;98034.45;1789355;78;21161;-65
2022/01/09 08:47:43;;;;;;;4.75;4.25;;;;;;;13.68;36.84;98030.45;1789900;78;21002;-69
2022/01/09 08:50:11;;;;;;;4.92;4.40;;;;;;;13.68;36.57;98024.59;1782432;78;20955;-66
2022/01/09 08:52:37;;;;;;;4.65;3.72;;;;;;;13.57;36.42;98031.50;1786540;79;21222;-67
2022/01/09 08:55:05;;;;;;;5.20;4.20;;;;;;;13.65;36.27;98031.71;1781036;78;20935;-67
2022/01/09 08:57:32;;;;;;;5.25;4.17;;;;;;;13.70;36.13;98025.69;1780243;79;21094;-65
2022/01/09 08:59:58;;;;;;;4.53;4.00;;;;;;;13.63;36.11;98031.12;1778684;79;20919;-65
2022/01/09 09:02:25;;;;;;;4.53;4.12;;;;;;;13.69;36.06;98026.75;1788799;78;20923;-62
2022/01/09 09:04:51;;;;;;;5.05;4.60;;;;;;;13.63;36.10;98021.78;1786566;79;20983;-64
2022/01/09 09:07:23;;;;;;;4.28;3.87;;;;;;;13.63;36.28;98020.44;1789258;79;20991;-65
2022/01/09 09:09:48;;;;;;;5.22;4.20;;;;;;;13.67;36.86;98012.77;1755285;80;21694;-69
2022/01/09 09:12:17;;;;;;;5.58;4.97;;;;;;;13.57;36.93;98016.80;1738873;82;21043;-68
2022/01/09 09:14:46;;;;;;;5.62;4.33;;;;;;;13.69;37.90;98005.37;1756195;81;21454;-69
2022/01/09 09:17:13;;;;;;;5.87;4.33;;;;;;;13.68;37.22;98000.54;1733913;82;20908;-67
2022/01/09 09:19:41;;;;;;;5.30;4.80;;;;;;;13.57;37.28;97991.94;1760333;80;21051;-68
2022/01/09 09:22:08;;;;;;;5.00;4.50;;;;;;;13.59;37.46;97994.67;1729811;80;21214;-65
2022/01/09 09:24:35;;;;;;;4.62;3.95;;;;;;;13.61;40.25;97985.91;1763410;81;20935;-64
2022/01/09 09:27:01;;;;;;;5.20;4.15;;;;;;;13.34;38.44;97985.14;1758601;80;20998;-66
2022/01/09 09:29:28;;;;;;;4.58;4.15;;;;;;;13.28;38.38;97988.69;1742922;80;21509;-80
2022/01/09 09:31:55;;;;;;;4.70;4.30;;;;;;;13.31;38.19;97990.41;1713797;82;20944;-68
2022/01/09 09:34:21;;;;;;;7.25;5.45;;;;;;;13.33;38.07;97974.14;1763285;81;21564;-67
2022/01/09 09:36:48;;;;;;;5.92;5.03;;;;;;;13.34;39.26;97969.94;1741292;81;20991;-67
2022/01/09 09:39:14;;;;;;;6.22;5.62;;;;;;;13.33;38.33;97960.79;1728436;82;20993;-69
2022/01/09 09:41:41;;;;;;;6.12;5.62;;;;;;;13.42;38.99;97966.96;1760938;81;20927;-68
2022/01/09 09:44:09;;;;;;;6.47;5.78;;;;;;;13.49;38.95;97965.52;1763849;81;21587;-66
2022/01/09 09:46:37;;;;;;;5.28;4.83;;;;;;;13.66;44.70;97979.09;1760524;81;21102;-67
2022/01/09 09:49:04;;;;;;;5.45;4.90;;;;;;;13.73;43.69;97988.65;1761631;81;20911;-66
2022/01/09 09:51:31;;;;;;;6.08;5.10;;;;;;;13.77;42.46;97993.82;1751639;81;20864;-65
2022/01/09 09:53:58;;;;;;;5.37;4.83;;;;;;;13.85;41.08;97988.68;1759300;81;20971;-67
2022/01/09 09:56:25;;;;;;;4.92;4.42;;;;;;;13.85;40.10;97990.02;1755114;80;21401;-65
2022/01/09 09:58:52;;;;;;;6.53;5.17;;;;;;;13.80;39.40;97994.72;1757874;80;21178;-63
2022/01/09 10:01:25;;;;;;;5.70;5.08;;;;;;;13.80;38.51;97989.37;1754986;81;20939;-61
2022/01/09 10:04:03;;;;;;;5.92;5.33;;;;;;;13.81;38.97;97987.00;1743508;81;21019;-68
2022/01/09 10:06:43;;;;;;;5.47;4.90;;;;;;;13.88;39.12;97988.23;1724659;82;20998;-72
2022/01/09 10:09:24;;;;;;;5.15;4.65;;;;;;;13.85;38.04;97984.67;1751139;81;21046;-69
2022/01/09 10:11:54;;;;;;;5.58;4.97;;;;;;;13.94;37.73;97976.13;1735469;82;21166;-69
2022/01/09 10:14:29;;;;;;;5.67;5.08;;;;;;;14.04;37.50;97983.59;1746856;81;20951;-66
2022/01/09 10:17:09;;;;;;;5.47;4.67;;;;;;;14.14;37.23;97986.52;1750237;81;21462;-69
2022/01/09 10:19:46;;;;;;;5.00;4.50;;;;;;;14.04;36.96;97979.58;1737648;82;21095;-68
2022/01/09 10:22:28;;;;;;;7.12;4.92;;;;;;;14.05;36.99;97968.64;1757603;79;25858;-68
2022/01/09 10:24:55;;;;;;;5.75;5.17;;;;;;;14.15;36.84;97970.27;1729536;82;21422;-67
2022/01/09 10:27:34;;;;;;;5.42;4.85;;;;;;;14.04;36.88;97978.23;1764257;80;20992;-67
2022/01/09 10:30:04;;;;;;;5.17;4.67;;;;;;;14.11;39.64;97969.07;1746349;81;21000;-66
2022/01/09 10:32:31;;;;;;;5.03;4.62;;;;;;;14.23;36.77;97967.23;1753600;81;20994;-67
2022/01/09 10:35:18;;;;;;;5.15;4.67;;;;;;;14.28;36.68;97964.41;1752139;81;20911;-64
2022/01/09 10:37:49;;;;;;;5.30;4.80;;;;;;;14.30;36.63;97971.67;1718800;82;22004;-65
2022/01/09 10:40:22;;;;;;;4.80;4.40;;;;;;;14.33;36.63;97976.59;1751773;81;20931;-65
2022/01/09 10:43:10;;;;;;;5.53;4.28;;;;;;;14.29;36.39;97962.03;1716484;82;20955;-65
2022/01/09 10:45:40;;;;;;;4.80;4.40;;;;;;;14.26;36.33;97967.84;1718554;82;21030;-63
2022/01/09 10:48:19;;;;;;;4.45;4.03;;;;;;;14.26;36.38;97972.64;1721097;82;20981;-63
2022/01/09 10:50:46;;;;;;;4.75;4.35;;;;;;;14.33;36.37;97960.02;1736713;82;21187;-65
2022/01/09 10:53:26;;;;;;;4.72;4.22;;;;;;;14.36;36.35;97954.22;1717730;82;21067;-67
2022/01/09 10:56:15;;;;;;;5.12;4.62;;;;;;;14.38;36.28;97948.11;1738117;81;21004;-64
2022/01/09 10:58:50;;;;;;;5.35;4.42;;;;;;;14.34;36.23;97949.59;1747464;80;21062;-66
2022/01/09 11:01:29;;;;;;;4.83;4.35;;;;;;;14.39;36.16;97936.89;1721389;82;21604;-61
2022/01/09 11:04:04;;;;;;;6.22;4.95;;;;;;;14.32;36.28;97943.67;1722834;82;21215;-67
2022/01/09 11:06:33;;;;;;;5.55;5.03;;;;;;;14.37;36.25;97942.45;1797092;79;21410;-66
2022/01/09 11:09:02;;;;;;;5.20;4.62;;;;;;;14.40;36.11;97942.52;1781142;78;21471;-66
2022/01/09 11:11:40;;;;;;;4.97;4.47;;;;;;;14.39;36.04;97946.25;1775127;80;21007;-63
2022/01/09 11:14:11;;;;;;;5.67;5.17;;;;;;;14.37;36.12;97955.01;1747354;80;20966;-63
2022/01/09 11:16:37;;;;;;;5.83;4.97;;;;;;;14.40;36.13;97946.02;1759845;80;21143;-66
2022/01/09 11:19:16;;;;;;;5.15;4.42;;;;;;;14.48;36.13;97944.33;1759173;80;21015;-63
2022/01/09 11:21:46;;;;;;;5.12;4.55;;;;;;;14.58;36.10;97951.77;1754731;80;20998;-62
2022/01/09 11:24:33;;;;;;;6.42;5.50;;;;;;;14.67;36.02;97958.42;1752566;80;21477;-64
2022/01/09 11:27:25;;;;;;;5.80;5.20;;;;;;;14.73;35.93;97956.95;1761781;78;20966;-64
2022/01/09 11:30:14;;;;;;;5.00;4.53;;;;;;;14.80;35.79;97955.52;1762667;80;21151;-62
2022/01/09 11:33:05;;;;;;;5.53;5.03;;;;;;;14.92;35.55;97956.83;1778448;80;20937;-64
2022/01/09 11:35:54;;;;;;;6.62;5.95;;;;;;;15.03;35.42;97953.33;1774422;80;21459;-65
2022/01/09 11:38:50;;;;;;;6.28;5.75;;;;;;;15.24;35.62;97946.02;1773290;80;20927;-68